createdAt,value
2022-12-29T00:00:05.535Z,100038.66
2022-12-29T00:02:32.058Z,100041.34
2022-12-29T00:04:58.470Z,100039.63
2022-12-29T00:07:24.883Z,100024.53
2022-12-29T00:09:51.303Z,100024.53
2022-12-29T00:12:17.755Z,100023.59
2022-12-29T00:15:03.019Z,100023.59
2022-12-29T00:17:29.381Z,100014.81
2022-12-29T00:20:14.566Z,100022.81
2022-12-29T00:22:59.286Z,100019.41
2022-12-29T00:25:44.194Z,100022.94
2022-12-29T00:28:28.897Z,100022.94
2022-12-29T00:31:18.713Z,100013.19
2022-12-29T00:34:03.899Z,100008.91
2022-12-29T00:36:35.924Z,100001.75
2022-12-29T00:39:29.010Z,99991.72
2022-12-29T00:42:13.716Z,99994.59
2022-12-29T00:44:40.142Z,99991.94
2022-12-29T00:47:06.597Z,99987.34
2022-12-29T00:49:34.092Z,99974.00
2022-12-29T00:52:08.623Z,99981.03
2022-12-29T00:54:38.654Z,99975.78
2022-12-29T00:57:07.290Z,99980.28
2022-12-29T00:59:36.316Z,99976.66
2022-12-29T01:02:02.895Z,99981.13
2022-12-29T01:04:29.609Z,99984.56
2022-12-29T01:06:55.996Z,99978.38
2022-12-29T01:09:41.204Z,99974.84
2022-12-29T01:12:09.040Z,99974.00
2022-12-29T01:14:35.806Z,99955.50
2022-12-29T01:17:02.279Z,99955.28
2022-12-29T01:19:28.734Z,99958.03
2022-12-29T01:21:57.136Z,99957.00
2022-12-29T01:24:23.722Z,99957.00
2022-12-29T01:26:50.264Z,99960.72
2022-12-29T01:29:16.804Z,99952.81
2022-12-29T01:31:43.860Z,99950.69
2022-12-29T01:34:10.343Z,99951.66
2022-12-29T01:36:36.962Z,99934.28
2022-12-29T01:39:03.582Z,99952.72
2022-12-29T01:41:30.129Z,99979.22
2022-12-29T01:44:00.168Z,99961.38
2022-12-29T01:46:42.207Z,99971.22
2022-12-29T01:49:08.541Z,99973.03
2022-12-29T01:51:43.771Z,99967.56
2022-12-29T01:54:15.818Z,99969.38
2022-12-29T01:56:42.713Z,99960.63
2022-12-29T01:59:13.452Z,99946.50
2022-12-29T02:01:41.085Z,99950.81
2022-12-29T02:04:11.448Z,99964.03
2022-12-29T02:06:58.996Z,99970.25
2022-12-29T02:09:25.571Z,99964.03
2022-12-29T02:11:53.248Z,99957.19
2022-12-29T02:14:19.683Z,99955.06
2022-12-29T02:16:52.764Z,99946.13
2022-12-29T02:20:00.984Z,99953.34
2022-12-29T02:23:11.897Z,99952.72
2022-12-29T02:25:53.504Z,99943.84
2022-12-29T02:28:29.622Z,99951.84
2022-12-29T02:31:22.036Z,99932.19
2022-12-29T02:34:13.684Z,99938.28
2022-12-29T02:37:10.514Z,99934.84
2022-12-29T02:40:08.279Z,99927.00
2022-12-29T02:42:44.954Z,99917.28
2022-12-29T02:45:21.540Z,99921.66
2022-12-29T02:47:57.476Z,99917.13
2022-12-29T02:50:28.235Z,99904.91
2022-12-29T02:53:03.272Z,99902.13
2022-12-29T02:55:29.714Z,99903.94
2022-12-29T02:58:25.780Z,99915.47
2022-12-29T03:01:17.208Z,99898.59
2022-12-29T03:04:12.393Z,99909.28
2022-12-29T03:07:03.255Z,99901.25
2022-12-29T03:09:50.581Z,99896.03
2022-12-29T03:13:00.258Z,99891.75
2022-12-29T03:15:59.354Z,99895.16
2022-12-29T03:18:50.901Z,99888.31
2022-12-29T03:21:54.763Z,99891.75
2022-12-29T03:24:26.086Z,99889.94
2022-12-29T03:26:55.691Z,99879.13
2022-12-29T03:29:22.425Z,99886.19
2022-12-29T03:31:52.477Z,99874.75
2022-12-29T03:34:20.966Z,99871.88
2022-12-29T03:36:58.847Z,99868.56
2022-12-29T03:39:26.243Z,99853.19
2022-12-29T03:42:02.738Z,99845.16
2022-12-29T03:44:40.271Z,99850.66
2022-12-29T03:47:07.072Z,99845.84
2022-12-29T03:49:34.146Z,99845.22
2022-12-29T03:52:00.903Z,99847.38
2022-12-29T03:54:27.476Z,99849.94
2022-12-29T03:56:53.908Z,99848.16
2022-12-29T03:59:20.441Z,99854.34
2022-12-29T04:01:47.409Z,99857.03
2022-12-29T04:04:14.137Z,99862.25
2022-12-29T04:06:40.880Z,99860.63
2022-12-29T04:09:07.656Z,99866.75
2022-12-29T04:11:34.655Z,99871.22
2022-12-29T04:14:01.113Z,99888.09
2022-12-29T04:16:27.544Z,99870.38
2022-12-29T04:18:54.044Z,99877.41
2022-12-29T04:21:20.517Z,99873.97
2022-12-29T04:23:47.087Z,99887.25
2022-12-29T04:26:13.911Z,99884.66
2022-12-29T04:28:41.063Z,99889.06
2022-12-29T04:31:07.847Z,99886.59
2022-12-29T04:33:34.374Z,99907.78
2022-12-29T04:36:00.898Z,99902.50
2022-12-29T04:38:27.394Z,99913.13
2022-12-29T04:40:54.053Z,99907.19
2022-12-29T04:43:20.559Z,99908.69
2022-12-29T04:45:47.748Z,99887.56
2022-12-29T04:48:14.858Z,99916.72
2022-12-29T04:50:41.999Z,99905.19
2022-12-29T04:53:08.976Z,99911.38
2022-12-29T04:55:35.408Z,99908.06
2022-12-29T04:58:01.840Z,99907.31
2022-12-29T05:00:28.415Z,99898.66
2022-12-29T05:02:55.102Z,99921.31
2022-12-29T05:05:21.740Z,99925.91
2022-12-29T05:07:48.220Z,99926.09
2022-12-29T05:10:14.646Z,99936.50
2022-12-29T05:12:41.071Z,99903.53
2022-12-29T05:15:08.636Z,99928.69
2022-12-29T05:17:35.106Z,99931.81
2022-12-29T05:20:01.522Z,99935.47
2022-12-29T05:22:27.963Z,99941.66
2022-12-29T05:24:54.424Z,99943.38
2022-12-29T05:27:20.993Z,99940.41
2022-12-29T05:29:47.460Z,99939.84
2022-12-29T05:32:13.940Z,99945.28
2022-12-29T05:34:41.217Z,99947.78
2022-12-29T05:37:07.693Z,99950.53
2022-12-29T05:39:34.158Z,99943.59
2022-12-29T05:42:00.665Z,99953.31
2022-12-29T05:44:27.067Z,99952.53
2022-12-29T05:46:53.597Z,99956.28
2022-12-29T05:49:20.424Z,99958.75
2022-12-29T05:51:46.771Z,99957.03
2022-12-29T05:54:13.215Z,99968.09
2022-12-29T05:56:39.609Z,99971.53
2022-12-29T05:59:06.001Z,99970.56
2022-12-29T06:01:32.495Z,99972.31
2022-12-29T06:03:59.540Z,99969.81
2022-12-29T06:06:27.143Z,99971.53
2022-12-29T06:08:53.646Z,99983.91
2022-12-29T06:11:20.465Z,99966.56
2022-12-29T06:13:46.882Z,99964.22
2022-12-29T06:16:13.907Z,99979.84
2022-12-29T06:18:40.449Z,99995.66
2022-12-29T06:21:06.882Z,99998.41
2022-12-29T06:23:33.711Z,99994.97
2022-12-29T06:26:00.371Z,100001.19
2022-12-29T06:28:26.884Z,99996.91
2022-12-29T06:30:53.301Z,100016.25
2022-12-29T06:33:19.791Z,99985.09
2022-12-29T06:35:47.003Z,100021.69
2022-12-29T06:38:13.638Z,100021.69
2022-12-29T06:40:40.576Z,100028.00
2022-12-29T06:43:07.030Z,100023.59
2022-12-29T06:45:33.699Z,100024.47
2022-12-29T06:48:00.390Z,100016.56
2022-12-29T06:50:27.119Z,100028.94
2022-12-29T06:52:53.523Z,100020.94
2022-12-29T06:55:20.001Z,100020.16
2022-12-29T06:57:46.374Z,100024.66
2022-12-29T07:00:15.895Z,100029.91
2022-12-29T07:02:45.994Z,100045.03
2022-12-29T07:05:12.591Z,100041.72
2022-12-29T07:07:38.976Z,100055.91
2022-12-29T07:10:05.676Z,100055.84
2022-12-29T07:12:32.079Z,100046.19
2022-12-29T07:14:58.538Z,100047.91
2022-12-29T07:17:24.956Z,100050.50
2022-12-29T07:19:51.447Z,100048.78
2022-12-29T07:22:17.815Z,100049.66
2022-12-29T07:24:44.286Z,100044.56
2022-12-29T07:27:10.767Z,100058.59
2022-12-29T07:29:40.053Z,100056.03
2022-12-29T07:32:06.717Z,100056.88
2022-12-29T07:34:33.252Z,100063.06
2022-12-29T07:36:59.677Z,100073.50
2022-12-29T07:39:26.429Z,100071.66
2022-12-29T07:41:52.937Z,100062.69
2022-12-29T07:44:19.270Z,100060.88
2022-12-29T07:46:55.030Z,100067.00
2022-12-29T07:49:23.249Z,100067.84
2022-12-29T07:51:49.654Z,100075.78
2022-12-29T07:54:19.050Z,100073.00
2022-12-29T07:56:46.026Z,100076.63
2022-12-29T07:59:13.120Z,100081.78
2022-12-29T08:01:39.845Z,100095.88
2022-12-29T08:04:06.602Z,100095.69
2022-12-29T08:06:33.228Z,100098.38
2022-12-29T08:09:07.853Z,100086.94
2022-12-29T08:11:39.412Z,100102.00
2022-12-29T08:14:05.901Z,100094.53
2022-12-29T08:16:33.438Z,100096.19
2022-12-29T08:19:00.292Z,100118.41
2022-12-29T08:21:28.821Z,100116.41
2022-12-29T08:23:55.347Z,100122.50
2022-12-29T08:26:21.936Z,100100.47
2022-12-29T08:28:48.444Z,100131.31
2022-12-29T08:31:15.115Z,100116.13
2022-12-29T08:33:43.198Z,100117.66
2022-12-29T08:36:10.201Z,100110.59
2022-12-29T08:38:36.612Z,100128.84
2022-12-29T08:41:03.289Z,100138.50
2022-12-29T08:43:30.858Z,100130.28
2022-12-29T08:45:59.293Z,100140.00
2022-12-29T08:48:26.369Z,100135.63
2022-12-29T08:50:53.561Z,100125.59
2022-12-29T08:53:20.467Z,100132.53
2022-12-29T08:55:47.831Z,100136.19
2022-12-29T08:58:15.643Z,100138.78
2022-12-29T09:00:42.986Z,100142.09
2022-12-29T09:03:09.685Z,100140.09
2022-12-29T09:05:36.392Z,100144.47
2022-12-29T09:08:02.776Z,100151.44
2022-12-29T09:10:29.287Z,100142.47
2022-12-29T09:12:55.782Z,100146.66
2022-12-29T09:15:22.283Z,100146.47
2022-12-29T09:17:48.685Z,100145.53
2022-12-29T09:20:17.916Z,100139.22
2022-12-29T09:22:45.326Z,100149.59
2022-12-29T09:25:12.544Z,100150.06
2022-12-29T09:27:39.441Z,100146.28
2022-12-29T09:30:08.340Z,100150.66
2022-12-29T09:32:39.112Z,100144.13
2022-12-29T09:35:08.655Z,100143.09
2022-12-29T09:37:35.069Z,100149.09
2022-12-29T09:40:01.576Z,100145.66
2022-12-29T09:42:40.238Z,100156.94
2022-12-29T09:45:42.360Z,100166.66
2022-12-29T09:48:19.563Z,100153.59
2022-12-29T09:50:53.069Z,100152.31
2022-12-29T09:53:28.804Z,100159.41
2022-12-29T09:55:58.357Z,100168.16
2022-12-29T09:58:33.992Z,100178.88
2022-12-29T10:01:08.707Z,100188.53
2022-12-29T10:03:57.582Z,100195.56
2022-12-29T10:06:56.177Z,100181.34
2022-12-29T10:09:54.471Z,100181.81
2022-12-29T10:12:58.668Z,100181.53
2022-12-29T10:16:00.744Z,100188.38
2022-12-29T10:18:27.181Z,100202.50
2022-12-29T10:21:05.863Z,100198.69
2022-12-29T10:23:46.011Z,100185.19
2022-12-29T10:26:19.635Z,100194.00
2022-12-29T10:28:53.312Z,100214.56
2022-12-29T10:31:25.230Z,100216.25
2022-12-29T10:34:04.283Z,100216.25
2022-12-29T10:36:39.616Z,100222.28
2022-12-29T10:39:19.863Z,100222.28
2022-12-29T10:41:59.501Z,100215.22
2022-12-29T10:44:30.548Z,100219.72
2022-12-29T10:47:02.106Z,100221.22
2022-12-29T10:49:31.485Z,100232.69
2022-12-29T10:52:01.297Z,100235.94
2022-12-29T10:54:34.525Z,100237.38
2022-12-29T10:57:06.218Z,100233.63
2022-12-29T10:59:36.547Z,100221.97
2022-12-29T11:02:05.743Z,100250.91
2022-12-29T11:04:51.108Z,100255.19
2022-12-29T11:07:25.081Z,100254.34
2022-12-29T11:09:53.679Z,100252.31
2022-12-29T11:12:21.883Z,100253.91
2022-12-29T11:14:48.597Z,100266.38
2022-12-29T11:17:18.131Z,100263.78
2022-12-29T11:19:44.840Z,100267.00
2022-12-29T11:22:23.816Z,100275.50
2022-12-29T11:24:52.422Z,100280.75
2022-12-29T11:27:23.870Z,100267.16
2022-12-29T11:29:52.307Z,100285.81
2022-12-29T11:32:28.758Z,100286.56
2022-12-29T11:34:58.505Z,100280.34
2022-12-29T11:37:31.513Z,100291.81
2022-12-29T11:40:09.098Z,100296.22
2022-12-29T11:42:57.735Z,100296.00
2022-12-29T11:45:26.503Z,100296.88
2022-12-29T11:47:57.316Z,100300.91
2022-12-29T11:50:27.245Z,100308.44
2022-12-29T11:53:01.420Z,100309.94
2022-12-29T11:55:29.645Z,100319.81
2022-12-29T11:57:59.304Z,100310.16
2022-12-29T12:00:28.662Z,100314.34
2022-12-29T12:03:05.076Z,100311.75
2022-12-29T12:05:45.720Z,100319.91
2022-12-29T12:08:22.304Z,100322.59
2022-12-29T12:10:59.935Z,100320.78
2022-12-29T12:13:50.969Z,100303.84
2022-12-29T12:16:22.256Z,100312.09
2022-12-29T12:18:52.952Z,100318.09
2022-12-29T12:21:33.076Z,100310.91
2022-12-29T12:24:06.499Z,100313.38
2022-12-29T12:26:42.721Z,100325.59
2022-12-29T12:29:27.276Z,100321.34
2022-12-29T12:32:02.483Z,100298.38
2022-12-29T12:34:38.198Z,100312.78
2022-12-29T12:37:27.615Z,100314.88
2022-12-29T12:40:03.277Z,100319.00
2022-12-29T12:42:41.814Z,100305.47
2022-12-29T12:45:41.811Z,100317.72
2022-12-29T12:48:44.926Z,100299.91
2022-12-29T12:51:49.173Z,100313.88
2022-12-29T12:54:24.687Z,100315.59
2022-12-29T12:57:10.015Z,100310.22
2022-12-29T12:59:39.547Z,100310.03
2022-12-29T13:02:37.098Z,100319.78
2022-12-29T13:05:15.525Z,100320.53
2022-12-29T13:08:20.507Z,100318.84
2022-12-29T13:10:57.486Z,100321.38
2022-12-29T13:13:42.125Z,100318.63
2022-12-29T13:16:38.380Z,100336.63
2022-12-29T13:19:13.544Z,100330.41
2022-12-29T13:21:57.441Z,100340.91
2022-12-29T13:24:54.199Z,100341.22
2022-12-29T13:27:42.427Z,100334.72
2022-12-29T13:30:18.851Z,100342.63
2022-12-29T13:33:04.035Z,100327.59
2022-12-29T13:35:52.176Z,100330.19
2022-12-29T13:38:31.897Z,100327.59
2022-12-29T13:41:04.211Z,100325.69
2022-12-29T13:43:34.961Z,100332.88
2022-12-29T13:46:14.042Z,100334.91
2022-12-29T13:48:55.745Z,100341.22
2022-12-29T13:51:28.078Z,100342.84
2022-12-29T13:54:13.831Z,100347.34
2022-12-29T13:57:01.807Z,100362.44
2022-12-29T13:59:44.841Z,100363.41
2022-12-29T14:02:59.613Z,100355.50
2022-12-29T14:05:26.073Z,100362.66
2022-12-29T14:08:01.821Z,100361.78
2022-12-29T14:10:37.307Z,100372.63
2022-12-29T14:13:05.675Z,100366.63
2022-12-29T14:15:32.377Z,100380.75
2022-12-29T14:18:13.294Z,100366.69
2022-12-29T14:20:50.650Z,100371.13
2022-12-29T14:23:26.711Z,100371.97
2022-12-29T14:26:00.507Z,100382.03
2022-12-29T14:28:29.648Z,100374.28
2022-12-29T14:31:01.709Z,100385.78
2022-12-29T14:33:33.970Z,100382.44
2022-12-29T14:36:58.517Z,100399.97
2022-12-29T14:39:42.613Z,100393.75
2022-12-29T14:42:19.893Z,100413.47
2022-12-29T14:44:52.958Z,100410.03
2022-12-29T14:47:28.199Z,100408.31
2022-12-29T14:49:55.626Z,100400.69
2022-12-29T14:52:24.114Z,100412.16
2022-12-29T14:55:10.687Z,100408.72
2022-12-29T14:57:41.777Z,100411.59
2022-12-29T15:00:20.937Z,100418.84
2022-12-29T15:02:55.568Z,100419.06
2022-12-29T15:05:46.036Z,100420.97
2022-12-29T15:08:14.204Z,100421.94
2022-12-29T15:10:53.986Z,100414.00
2022-12-29T15:13:33.111Z,100426.72
2022-12-29T15:15:59.617Z,100414.56
2022-12-29T15:18:29.950Z,100415.47
2022-12-29T15:21:07.414Z,100419.25
2022-12-29T15:23:35.826Z,100415.19
2022-12-29T15:26:04.768Z,100432.19
2022-12-29T15:28:44.048Z,100426.25
2022-12-29T15:31:17.959Z,100433.44
2022-12-29T15:33:48.413Z,100430.00
2022-12-29T15:36:23.303Z,100429.44
2022-12-29T15:38:50.306Z,100438.69
2022-12-29T15:41:28.071Z,100439.56
2022-12-29T15:44:09.027Z,100443.34
2022-12-29T15:46:36.024Z,100438.25
2022-12-29T15:49:07.338Z,100454.31
2022-12-29T15:51:38.108Z,100450.91
2022-12-29T15:54:05.149Z,100450.22
2022-12-29T15:56:33.251Z,100457.47
2022-12-29T15:59:00.596Z,100463.97
2022-12-29T16:01:34.599Z,100454.22
2022-12-29T16:04:05.491Z,100464.34
2022-12-29T16:06:37.507Z,100459.78
2022-12-29T16:09:16.189Z,100453.81
2022-12-29T16:11:51.681Z,100458.38
2022-12-29T16:14:22.113Z,100472.84
2022-12-29T16:16:50.300Z,100476.53
2022-12-29T16:19:24.912Z,100490.78
2022-12-29T16:21:51.835Z,100479.59
2022-12-29T16:24:22.831Z,100514.19
2022-12-29T16:26:59.170Z,100506.50
2022-12-29T16:29:25.605Z,100528.88
2022-12-29T16:32:06.529Z,100536.09
2022-12-29T16:34:42.873Z,100545.94
2022-12-29T16:37:30.122Z,100554.25
2022-12-29T16:39:57.012Z,100547.38
2022-12-29T16:42:50.993Z,100547.38
2022-12-29T16:45:21.825Z,100551.06
2022-12-29T16:48:01.037Z,100547.72
2022-12-29T16:50:28.985Z,100556.66
2022-12-29T16:52:55.528Z,100563.94
2022-12-29T16:55:21.977Z,100541.84
2022-12-29T16:57:50.711Z,100551.59
2022-12-29T17:00:29.904Z,100551.75
2022-12-29T17:02:59.908Z,100556.44
2022-12-29T17:05:26.780Z,100553.75
2022-12-29T17:07:53.811Z,100553.94
2022-12-29T17:10:20.517Z,100552.22
2022-12-29T17:12:49.594Z,100554.09
2022-12-29T17:15:19.602Z,100562.28
2022-12-29T17:17:48.625Z,100563.41
2022-12-29T17:20:33.007Z,100561.88
2022-12-29T17:23:00.222Z,100558.59
2022-12-29T17:25:36.397Z,100556.88
2022-12-29T17:28:23.393Z,100549.59
2022-12-29T17:30:50.412Z,100578.53
2022-12-29T17:33:18.177Z,100575.47
2022-12-29T17:35:48.300Z,100580.16
2022-12-29T17:38:36.296Z,100578.34
2022-12-29T17:41:02.904Z,100593.38
2022-12-29T17:43:36.468Z,100596.03
2022-12-29T17:46:06.241Z,100583.63
2022-12-29T17:48:32.790Z,100594.47
2022-12-29T17:50:59.559Z,100591.13
2022-12-29T17:53:29.186Z,100599.03
2022-12-29T17:55:55.710Z,100593.84
2022-12-29T17:58:24.824Z,100591.28
2022-12-29T18:00:59.805Z,100598.50
2022-12-29T18:03:33.460Z,100582.81
2022-12-29T18:06:00.681Z,100593.41
2022-12-29T18:08:29.337Z,100594.53
2022-12-29T18:10:56.548Z,100600.81
2022-12-29T18:13:30.289Z,100605.38
2022-12-29T18:16:02.409Z,100604.75
2022-12-29T18:18:28.853Z,100602.25
2022-12-29T18:20:58.959Z,100612.75
2022-12-29T18:23:28.877Z,100605.88
2022-12-29T18:25:59.877Z,100613.78
2022-12-29T18:28:27.274Z,100607.13
2022-12-29T18:30:55.733Z,100615.75
2022-12-29T18:33:26.236Z,100612.47
2022-12-29T18:35:57.675Z,100622.22
2022-12-29T18:38:24.239Z,100612.53
2022-12-29T18:40:51.891Z,100621.50
2022-12-29T18:43:19.290Z,100615.47
2022-12-29T18:45:46.463Z,100629.63
2022-12-29T18:48:13.878Z,100615.47
2022-12-29T18:50:40.679Z,100622.84
2022-12-29T18:53:07.362Z,100627.16
2022-12-29T18:55:33.882Z,100638.69
2022-12-29T18:58:00.262Z,100636.03
2022-12-29T19:00:26.627Z,100636.97
2022-12-29T19:02:53.149Z,100651.28
2022-12-29T19:05:28.454Z,100646.81
2022-12-29T19:07:55.055Z,100659.34
2022-12-29T19:10:25.461Z,100656.69
2022-12-29T19:12:52.715Z,100669.19
2022-12-29T19:15:35.849Z,100655.03
2022-12-29T19:20:53.166Z,100644.53
2022-12-29T19:23:25.414Z,100645.47
2022-12-29T19:25:53.408Z,100653.47
2022-12-29T19:28:25.844Z,100660.56
2022-12-29T19:30:55.245Z,100660.63
2022-12-29T19:33:24.092Z,100660.72
2022-12-29T19:35:51.547Z,100660.72
2022-12-29T19:38:18.900Z,100655.53
2022-12-29T19:40:48.136Z,100657.16
2022-12-29T19:43:15.451Z,100653.97
2022-12-29T19:45:43.565Z,100666.19
2022-12-29T19:48:15.940Z,100679.53
2022-12-29T19:50:43.622Z,100673.41
2022-12-29T19:53:10.482Z,100687.72
2022-12-29T19:55:37.057Z,100687.75
2022-12-29T19:58:03.907Z,100698.38
2022-12-29T20:00:30.411Z,100698.44
2022-12-29T20:02:57.017Z,100694.91
2022-12-29T20:05:23.683Z,100684.38
2022-12-29T20:07:50.120Z,100688.00
2022-12-29T20:10:16.559Z,100691.47
2022-12-29T20:12:43.104Z,100686.28
2022-12-29T20:15:11.513Z,100699.47
2022-12-29T20:18:11.748Z,100692.50
2022-12-29T20:20:24.415Z,100697.88
2022-12-29T20:22:50.964Z,100691.78
2022-12-29T20:28:03.848Z,100705.47
2022-12-29T20:30:30.219Z,100709.50
2022-12-29T20:32:56.579Z,100694.75
2022-12-29T20:35:23.131Z,100714.84
2022-12-29T20:37:49.731Z,100706.94
2022-12-29T20:40:16.257Z,100713.28
2022-12-29T20:42:42.707Z,100720.34
2022-12-29T20:45:09.928Z,100708.81
2022-12-29T20:47:36.583Z,100718.63
2022-12-29T20:50:03.080Z,100717.75
2022-12-29T20:52:29.433Z,100724.00
2022-12-29T20:54:55.840Z,100723.09
2022-12-29T20:57:22.273Z,100722.22
2022-12-29T20:59:50.219Z,100715.44
2022-12-29T21:02:22.312Z,100708.53
2022-12-29T21:07:35.559Z,100732.16
2022-12-29T21:10:02.041Z,100726.69
2022-12-29T21:12:28.545Z,100729.44
2022-12-29T21:14:55.152Z,100738.25
2022-12-29T21:17:21.831Z,100734.69
2022-12-29T21:19:48.645Z,100741.81
2022-12-29T21:22:15.023Z,100741.06
2022-12-29T21:24:41.450Z,100724.25
2022-12-29T21:27:07.896Z,100740.09
2022-12-29T21:29:34.326Z,100741.06
2022-12-29T21:32:06.288Z,100741.97
2022-12-29T21:34:34.661Z,100733.19
2022-12-29T21:37:01.356Z,100749.91
2022-12-29T21:39:28.025Z,100733.91
2022-12-29T21:42:00.004Z,100739.41
2022-12-29T21:44:46.133Z,100742.91
2022-12-29T21:47:13.020Z,100740.25
2022-12-29T21:49:39.493Z,100749.22
2022-12-29T21:52:05.937Z,100754.53
2022-12-29T21:54:50.724Z,100752.03
2022-12-29T21:57:37.061Z,100752.78
2022-12-29T22:00:29.399Z,100759.16
2022-12-29T22:03:22.162Z,100758.28
2022-12-29T22:06:08.918Z,100748.63
2022-12-29T22:08:53.691Z,100762.75
2022-12-29T22:11:38.463Z,100768.16
2022-12-29T22:14:06.355Z,100762.97
2022-12-29T22:16:32.936Z,100772.56
2022-12-29T22:18:59.493Z,100778.84
2022-12-29T22:21:25.937Z,100783.31
2022-12-29T22:23:52.428Z,100759.88
2022-12-29T22:26:18.901Z,100790.47
2022-12-29T22:28:46.268Z,100789.66
2022-12-29T22:31:28.821Z,100794.19
2022-12-29T22:34:00.972Z,100796.94
2022-12-29T22:36:28.022Z,100794.19
2022-12-29T22:38:54.514Z,100807.47
2022-12-29T22:41:21.426Z,100796.09
2022-12-29T22:43:47.898Z,100802.19
2022-12-29T22:46:14.345Z,100800.63
2022-12-29T22:48:40.999Z,100822.75
2022-12-29T22:51:07.722Z,100820.00
2022-12-29T22:53:34.188Z,100814.22
2022-12-29T22:56:02.267Z,100838.69
2022-12-29T22:58:28.680Z,100826.34
2022-12-29T23:00:55.101Z,100833.56
2022-12-29T23:03:24.436Z,100833.75
2022-12-29T23:05:58.814Z,100846.91
2022-12-29T23:08:25.729Z,100850.56
2022-12-29T23:10:52.515Z,100841.78
2022-12-29T23:13:19.117Z,100849.72
2022-12-29T23:15:46.823Z,100859.56
2022-12-29T23:18:13.325Z,100862.34
2022-12-29T23:20:40.405Z,100871.19
2022-12-29T23:23:06.789Z,100888.91
2022-12-29T23:25:35.945Z,100886.34
2022-12-29T23:28:02.938Z,100885.44
2022-12-29T23:30:29.315Z,100894.34
2022-12-29T23:32:55.799Z,100889.16
2022-12-29T23:35:22.192Z,100898.09
2022-12-29T23:37:48.751Z,100897.97
2022-12-29T23:40:15.284Z,100894.56
2022-12-29T23:42:41.711Z,100897.25
2022-12-29T23:45:08.735Z,100894.56
2022-12-29T23:47:35.097Z,100896.50
2022-12-29T23:50:01.556Z,100905.28
2022-12-29T23:52:27.972Z,100903.56
2022-12-29T23:54:54.391Z,100893.97
2022-12-29T23:57:20.939Z,100909.84
2022-12-29T23:59:47.323Z,100921.38
